Time;durP1;ratioP1;P1;durP2;ratioP2;P2;SDS_P1;SDS_P2;PMS_P1;PMS_P2;Temp;Humidity;BMP_temperature;BMP_pressure;BME280_temperature;BME280_humidity;BME280_pressure;Samples;Min_cycle;Max_cycle;Signal;HPM_P1;HPM_P2
2023/04/03 00:01:30;;;;;;;4.20;0.93;;;5.80;74.40;;;;;;5037755;28;20136;-81
2023/04/03 00:03:56;;;;;;;3.97;0.83;;;5.70;74.50;;;;;;5038086;28;20028;-81
2023/04/03 00:06:23;;;;;;;4.40;0.90;;;5.80;74.80;;;;;;5038125;28;20495;-81
2023/04/03 00:08:49;;;;;;;3.30;1.10;;;5.70;75.00;;;;;;5055961;28;20029;-83
2023/04/03 00:11:15;;;;;;;2.53;0.80;;;5.70;74.70;;;;;;5054575;28;20035;-83
2023/04/03 00:13:41;;;;;;;7.03;1.03;;;5.70;74.80;;;;;;5037516;28;20120;-83
2023/04/03 00:16:08;;;;;;;3.60;1.00;;;5.60;74.70;;;;;;5054556;28;20021;-83
2023/04/03 00:18:35;;;;;;;3.90;1.23;;;5.60;74.90;;;;;;5037987;28;20469;-82
2023/04/03 00:21:01;;;;;;;6.53;1.13;;;5.60;74.90;;;;;;5054687;28;20065;-82
2023/04/03 00:23:26;;;;;;;5.33;1.60;;;5.60;75.20;;;;;;5054365;28;20087;-82
2023/04/03 00:25:53;;;;;;;3.37;0.80;;;5.60;75.40;;;;;;5054539;28;20048;-82
2023/04/03 00:28:21;;;;;;;4.57;0.67;;;5.50;75.50;;;;;;5054133;28;20029;-82
2023/04/03 00:30:49;;;;;;;3.20;1.13;;;5.50;75.70;;;;;;5038156;28;20029;-81
2023/04/03 00:33:15;;;;;;;4.53;0.70;;;5.50;75.70;;;;;;5055391;28;20031;-81
2023/04/03 00:35:41;;;;;;;6.33;1.00;;;5.40;75.50;;;;;;5037260;28;20116;-81
2023/04/03 00:38:08;;;;;;;5.50;1.20;;;5.40;75.70;;;;;;5055461;28;20425;-80
2023/04/03 00:40:37;;;;;;;4.03;1.50;;;5.40;76.00;;;;;;5054466;28;20040;-82
2023/04/03 00:43:14;;;;;;;6.43;1.33;;;5.40;76.00;;;;;;5054134;28;20028;-80
2023/04/03 00:45:45;;;;;;;2.97;0.90;;;5.30;75.60;;;;;;5055922;28;20029;-82
2023/04/03 00:48:19;;;;;;;2.83;1.10;;;5.30;75.80;;;;;;5054703;28;20389;-81
2023/04/03 00:50:46;;;;;;;3.17;0.70;;;5.30;75.90;;;;;;5054667;28;20068;-81
2023/04/03 00:53:16;;;;;;;5.80;1.00;;;5.30;76.00;;;;;;5053583;28;20025;-80
2023/04/03 00:55:42;;;;;;;2.73;1.00;;;5.20;76.40;;;;;;5054618;28;20481;-80
2023/04/03 00:58:09;;;;;;;6.37;1.10;;;5.20;76.70;;;;;;5053837;28;20029;-80
2023/04/03 01:00:39;;;;;;;3.17;0.70;;;5.10;76.50;;;;;;5060028;28;20056;-80
2023/04/03 01:03:04;;;;;;;4.23;0.90;;;5.20;77.00;;;;;;5072262;28;20025;-80
2023/04/03 01:05:30;;;;;;;2.03;0.70;;;5.20;76.80;;;;;;5052683;28;20035;-80
2023/04/03 01:07:57;;;;;;;4.40;1.00;;;5.20;76.80;;;;;;5056624;28;20032;-80
2023/04/03 01:10:25;;;;;;;4.13;0.80;;;5.10;76.70;;;;;;5056637;28;20063;-80
2023/04/03 01:12:51;;;;;;;6.83;0.90;;;5.10;77.20;;;;;;5054453;28;20029;-81
2023/04/03 01:15:23;;;;;;;5.30;0.83;;;5.10;76.90;;;;;;5072235;28;20035;-80
2023/04/03 01:17:51;;;;;;;5.57;1.10;;;5.10;77.30;;;;;;5073868;28;20025;-81
2023/04/03 01:20:35;;;;;;;4.00;0.83;;;5.10;77.40;;;;;;5073041;28;20025;-81
2023/04/03 01:23:12;;;;;;;3.85;0.93;;;5.00;77.40;;;;;;5073603;28;20025;-80
2023/04/03 01:25:53;;;;;;;2.50;0.90;;;5.00;77.60;;;;;;5074816;28;20079;-80
2023/04/03 01:28:22;;;;;;;2.87;1.00;;;5.00;77.50;;;;;;5065577;28;20047;-79
2023/04/03 01:31:15;;;;;;;3.23;1.00;;;5.00;77.60;;;;;;5052999;28;20204;-81
2023/04/03 01:33:41;;;;;;;5.43;1.37;;;5.00;78.00;;;;;;5053559;28;20115;-80
2023/04/03 01:36:08;;;;;;;6.87;1.07;;;5.00;78.60;;;;;;5036757;28;20017;-80
2023/04/03 01:38:33;;;;;;;4.60;1.10;;;4.90;78.10;;;;;;5036199;28;20129;-80
2023/04/03 01:41:00;;;;;;;4.23;1.00;;;4.90;78.20;;;;;;5036113;28;20119;-80
2023/04/03 01:43:25;;;;;;;5.33;0.83;;;4.90;78.40;;;;;;5054053;28;20583;-79
2023/04/03 01:45:52;;;;;;;3.77;1.10;;;5.00;78.70;;;;;;5052898;28;20033;-80
2023/04/03 01:48:18;;;;;;;6.13;0.90;;;4.90;78.40;;;;;;5045907;28;20431;-80
2023/04/03 01:50:44;;;;;;;3.60;0.80;;;4.80;78.60;;;;;;5056505;28;20035;-81
2023/04/03 01:53:10;;;;;;;3.77;0.93;;;4.80;79.20;;;;;;5056157;28;20032;-80
2023/04/03 01:55:35;;;;;;;3.83;0.77;;;4.80;79.00;;;;;;5073371;28;20059;-80
2023/04/03 01:58:01;;;;;;;3.87;0.70;;;4.80;79.20;;;;;;5059716;28;20469;-80
2023/04/03 02:00:27;;;;;;;4.53;0.93;;;4.80;79.20;;;;;;5035588;28;20045;-80
2023/04/03 02:02:53;;;;;;;4.77;1.03;;;4.80;79.20;;;;;;5035617;28;20040;-81
2023/04/03 02:05:18;;;;;;;2.53;0.70;;;4.70;79.70;;;;;;5036127;28;20462;-80
2023/04/03 02:07:44;;;;;;;1.87;0.90;;;4.70;79.60;;;;;;5035329;28;20099;-80
2023/04/03 02:10:10;;;;;;;3.60;0.70;;;4.70;79.90;;;;;;5036015;28;20025;-82
2023/04/03 02:12:36;;;;;;;5.03;1.03;;;4.70;79.70;;;;;;5052625;28;20071;-82
2023/04/03 02:15:02;;;;;;;2.53;0.80;;;4.70;79.60;;;;;;5053412;28;20469;-82
2023/04/03 02:17:27;;;;;;;5.10;1.00;;;4.60;80.20;;;;;;5035751;28;20385;-82
2023/04/03 02:19:53;;;;;;;4.80;0.97;;;4.60;79.80;;;;;;5052422;28;20047;-82
2023/04/03 02:22:20;;;;;;;5.30;1.33;;;4.60;80.20;;;;;;5035169;28;20068;-82
2023/04/03 02:24:45;;;;;;;3.80;0.83;;;4.60;80.40;;;;;;5035824;28;20029;-81
2023/04/03 02:27:11;;;;;;;5.17;1.00;;;4.60;80.40;;;;;;5035332;28;20032;-81
2023/04/03 02:29:37;;;;;;;5.63;1.17;;;4.50;81.00;;;;;;5052301;28;20056;-80
2023/04/03 02:32:02;;;;;;;9.43;1.27;;;4.50;80.60;;;;;;5051755;28;20040;-80
2023/04/03 02:34:28;;;;;;;3.37;1.03;;;4.50;81.30;;;;;;5035347;28;20544;-80
2023/04/03 02:36:54;;;;;;;6.80;1.20;;;4.50;81.00;;;;;;5052250;28;20108;-80
2023/04/03 02:39:20;;;;;;;4.57;1.00;;;4.50;81.00;;;;;;5051476;28;20389;-80
2023/04/03 02:41:45;;;;;;;3.90;1.00;;;4.40;80.90;;;;;;5035432;28;20048;-80
2023/04/03 02:44:12;;;;;;;5.27;1.20;;;4.40;81.30;;;;;;5035040;28;20025;-80
2023/04/03 02:46:37;;;;;;;3.73;0.90;;;4.40;81.40;;;;;;5051711;28;20079;-81
2023/04/03 02:49:03;;;;;;;3.63;1.00;;;4.40;81.90;;;;;;5051740;28;20124;-81
2023/04/03 02:51:30;;;;;;;4.33;0.90;;;4.50;81.70;;;;;;5035520;28;20029;-81
2023/04/03 02:53:55;;;;;;;4.80;1.00;;;4.40;81.50;;;;;;5051846;28;20033;-81
2023/04/03 02:56:21;;;;;;;5.27;1.47;;;4.40;82.00;;;;;;5035051;28;20033;-81
2023/04/03 02:58:47;;;;;;;6.27;1.00;;;4.30;81.70;;;;;;5052994;28;20394;-81
2023/04/03 03:01:13;;;;;;;3.80;1.30;;;4.40;81.80;;;;;;5046173;28;20082;-82
2023/04/03 03:03:39;;;;;;;4.70;1.13;;;4.30;82.40;;;;;;5055357;28;20246;-81
2023/04/03 03:06:11;;;;;;;3.23;1.10;;;4.30;82.50;;;;;;5071494;28;20519;-80
2023/04/03 03:08:38;;;;;;;2.90;0.70;;;4.30;82.20;;;;;;5052580;28;20025;-81
2023/04/03 03:11:04;;;;;;;4.87;0.83;;;4.20;82.20;;;;;;5018575;28;20035;-81
2023/04/03 03:13:30;;;;;;;3.70;1.00;;;4.20;82.30;;;;;;5018525;28;20033;-81
2023/04/03 03:15:56;;;;;;;5.17;1.10;;;4.20;82.20;;;;;;5053021;28;20056;-81
2023/04/03 03:18:22;;;;;;;8.33;0.80;;;4.20;82.30;;;;;;5018425;28;20358;-81
2023/04/03 03:20:58;;;;;;;4.37;0.93;;;4.10;82.50;;;;;;5021876;28;20060;-81
2023/04/03 03:23:26;;;;;;;4.17;1.10;;;4.10;82.60;;;;;;5070499;28;20024;-82
2023/04/03 03:26:02;;;;;;;5.23;1.33;;;4.10;82.90;;;;;;5057256;28;20052;-81
2023/04/03 03:28:30;;;;;;;5.27;0.93;;;4.10;83.10;;;;;;5056941;28;20017;-81
2023/04/03 03:30:57;;;;;;;4.93;1.00;;;4.10;83.30;;;;;;5054753;28;20041;-81
2023/04/03 03:33:23;;;;;;;5.60;1.33;;;4.10;83.50;;;;;;5055460;28;20087;-82
2023/04/03 03:35:48;;;;;;;3.73;1.00;;;4.10;83.50;;;;;;5055348;28;20481;-82
2023/04/03 03:38:14;;;;;;;5.00;1.00;;;4.10;83.40;;;;;;5072308;28;20398;-82
2023/04/03 03:40:40;;;;;;;4.07;1.30;;;4.10;83.80;;;;;;5043622;28;20337;-82
2023/04/03 03:43:05;;;;;;;3.90;1.20;;;4.10;83.80;;;;;;5022381;28;20112;-80
2023/04/03 03:45:31;;;;;;;5.17;1.10;;;4.00;84.10;;;;;;5038199;28;20489;-80
2023/04/03 03:47:57;;;;;;;2.13;0.87;;;4.00;84.10;;;;;;5038796;28;20025;-80
2023/04/03 03:50:22;;;;;;;8.50;1.10;;;4.00;84.10;;;;;;5021528;28;20529;-79
2023/04/03 03:52:48;;;;;;;7.63;1.20;;;4.00;84.40;;;;;;5005781;28;20048;-79
2023/04/03 03:55:14;;;;;;;2.17;0.90;;;4.00;84.30;;;;;;5041758;28;20047;-79
2023/04/03 03:57:40;;;;;;;6.83;0.90;;;3.90;84.50;;;;;;5041702;28;20074;-80
2023/04/03 04:00:07;;;;;;;5.83;0.97;;;3.90;84.90;;;;;;5005537;28;20476;-80
2023/04/03 04:02:33;;;;;;;8.10;1.30;;;3.90;84.70;;;;;;5037492;28;20456;-79
2023/04/03 04:04:58;;;;;;;3.33;0.93;;;3.90;84.90;;;;;;5038105;28;20412;-80
2023/04/03 04:07:24;;;;;;;5.80;1.20;;;3.90;85.00;;;;;;5055690;28;20025;-80
2023/04/03 04:09:49;;;;;;;4.67;0.87;;;3.80;84.80;;;;;;5038275;28;20029;-81
2023/04/03 04:12:15;;;;;;;4.70;1.03;;;3.90;85.50;;;;;;5039583;28;20556;-81
2023/04/03 04:14:41;;;;;;;4.20;1.10;;;3.80;85.50;;;;;;5058080;28;20029;-81
2023/04/03 04:17:06;;;;;;;4.63;0.90;;;3.80;85.30;;;;;;5077563;28;20060;-81
2023/04/03 04:19:33;;;;;;;4.90;1.20;;;3.80;85.10;;;;;;5059397;28;20040;-81
2023/04/03 04:21:58;;;;;;;4.70;1.60;;;3.70;85.40;;;;;;5076066;28;20041;-81
2023/04/03 04:24:24;;;;;;;5.90;1.27;;;3.70;85.80;;;;;;5076218;28;20146;-81
2023/04/03 04:26:50;;;;;;;6.13;1.40;;;3.70;85.90;;;;;;5074719;28;20119;-81
2023/04/03 04:29:16;;;;;;;7.80;1.43;;;3.70;85.80;;;;;;5058738;28;20025;-82
2023/04/03 04:31:41;;;;;;;5.47;0.93;;;3.70;86.00;;;;;;5075844;28;20032;-81
2023/04/03 04:34:08;;;;;;;5.10;1.27;;;3.60;86.00;;;;;;5040720;28;20032;-81
2023/04/03 04:36:33;;;;;;;7.73;1.50;;;3.60;86.00;;;;;;5057681;28;20025;-82
2023/04/03 04:38:59;;;;;;;4.07;1.13;;;3.50;86.00;;;;;;5057821;28;20031;-82
2023/04/03 04:41:25;;;;;;;6.53;1.27;;;3.50;86.40;;;;;;5057507;28;20465;-81
2023/04/03 04:43:51;;;;;;;7.00;1.20;;;3.50;86.50;;;;;;5071574;28;20481;-82
2023/04/03 04:46:17;;;;;;;6.53;1.30;;;3.50;86.30;;;;;;5074237;28;20047;-83
2023/04/03 04:48:43;;;;;;;5.33;1.27;;;3.50;86.60;;;;;;5073849;28;20806;-81
2023/04/03 04:51:09;;;;;;;5.57;0.90;;;3.50;86.60;;;;;;5057211;28;20035;-80
2023/04/03 04:53:35;;;;;;;11.20;1.40;;;3.40;86.80;;;;;;5057464;28;20035;-80
2023/04/03 04:56:01;;;;;;;5.07;1.07;;;3.40;86.70;;;;;;5056674;28;20029;-79
2023/04/03 04:58:26;;;;;;;7.57;1.10;;;3.40;86.90;;;;;;5040511;28;20024;-83
2023/04/03 05:01:18;;;;;;;9.50;2.23;;;3.30;86.90;;;;;;5046667;28;20430;-83
2023/04/03 05:03:44;;;;;;;6.27;1.80;;;3.30;87.20;;;;;;5021322;28;20056;-83
2023/04/03 05:06:10;;;;;;;9.73;2.80;;;3.30;87.40;;;;;;5021672;28;20605;-81
2023/04/03 05:08:36;;;;;;;4.73;1.87;;;3.30;87.50;;;;;;5002471;28;20026;-82
2023/04/03 05:11:01;;;;;;;6.23;1.47;;;3.20;87.30;;;;;;5017096;28;20044;-82
2023/04/03 05:13:27;;;;;;;5.20;1.33;;;3.20;87.30;;;;;;5012951;28;20066;-81
2023/04/03 05:15:53;;;;;;;6.70;1.60;;;3.20;88.40;;;;;;5029019;28;20082;-80
2023/04/03 05:18:18;;;;;;;4.93;1.43;;;3.20;88.10;;;;;;5015216;28;20064;-80
2023/04/03 05:20:44;;;;;;;5.80;1.53;;;3.20;87.80;;;;;;4998906;28;20046;-79
2023/04/03 05:23:11;;;;;;;4.40;1.33;;;3.30;88.20;;;;;;5031527;28;20037;-79
2023/04/03 05:25:40;;;;;;;6.37;1.10;;;3.10;87.70;;;;;;5017373;28;20030;-79
2023/04/03 05:28:06;;;;;;;3.93;1.17;;;3.10;88.10;;;;;;4994703;28;20032;-78
2023/04/03 05:30:31;;;;;;;4.23;1.00;;;3.10;88.40;;;;;;5017369;28;20405;-79
2023/04/03 05:32:58;;;;;;;3.40;0.87;;;3.10;88.70;;;;;;5025458;28;20041;-79
2023/04/03 05:35:24;;;;;;;8.47;1.33;;;3.20;88.60;;;;;;5057071;28;20056;-79
2023/04/03 05:37:50;;;;;;;8.60;2.20;;;3.10;88.90;;;;;;5035269;28;20025;-78
2023/04/03 05:40:16;;;;;;;7.23;2.33;;;3.10;89.10;;;;;;5049094;28;20079;-79
2023/04/03 05:42:41;;;;;;;5.97;1.90;;;3.10;89.20;;;;;;5032468;28;20084;-79
2023/04/03 05:45:07;;;;;;;6.17;1.83;;;3.10;89.20;;;;;;5016337;28;20037;-79
2023/04/03 05:47:33;;;;;;;7.43;1.33;;;3.10;89.20;;;;;;5016488;28;20033;-79
2023/04/03 05:49:58;;;;;;;6.30;0.93;;;3.10;89.30;;;;;;5032312;28;20037;-79
2023/04/03 05:52:28;;;;;;;4.73;1.00;;;3.10;89.50;;;;;;5015811;28;20116;-79
2023/04/03 05:54:54;;;;;;;4.70;1.47;;;3.20;89.50;;;;;;5032472;28;20052;-79
2023/04/03 05:57:20;;;;;;;5.93;1.27;;;3.10;89.30;;;;;;5038343;28;20035;-79
2023/04/03 05:59:46;;;;;;;6.20;1.50;;;3.20;89.50;;;;;;5035995;28;20033;-79
2023/04/03 06:02:15;;;;;;;6.97;1.00;;;3.20;89.70;;;;;;5041186;28;20133;-79
2023/04/03 06:04:44;;;;;;;6.23;1.33;;;3.20;89.80;;;;;;5039126;28;20082;-79
2023/04/03 06:07:27;;;;;;;6.37;1.10;;;3.20;89.70;;;;;;5052187;28;20029;-79
2023/04/03 06:09:55;;;;;;;5.17;1.00;;;3.30;89.80;;;;;;5049937;28;20061;-79
2023/04/03 06:12:21;;;;;;;6.20;1.70;;;3.20;89.70;;;;;;5016023;28;20037;-79
2023/04/03 06:14:48;;;;;;;5.57;1.10;;;3.30;90.00;;;;;;5032349;28;20021;-79
2023/04/03 06:17:15;;;;;;;9.10;1.33;;;3.30;89.90;;;;;;5027029;28;20025;-79
2023/04/03 06:19:41;;;;;;;4.70;1.30;;;3.30;90.00;;;;;;5053564;28;20104;-78
2023/04/03 06:22:07;;;;;;;4.97;1.60;;;3.30;90.10;;;;;;5037640;28;20186;-79
2023/04/03 06:24:32;;;;;;;6.97;1.30;;;3.30;90.00;;;;;;5052481;28;20662;-79
2023/04/03 06:26:58;;;;;;;4.40;0.93;;;3.40;90.00;;;;;;5040621;28;20075;-79
2023/04/03 06:29:27;;;;;;;5.37;0.90;;;3.40;90.00;;;;;;5051774;28;20036;-79
2023/04/03 06:31:52;;;;;;;7.97;1.33;;;3.30;89.90;;;;;;5050507;28;20048;-79
2023/04/03 06:34:18;;;;;;;6.50;1.20;;;3.40;89.80;;;;;;5050341;28;20473;-79
2023/04/03 06:36:46;;;;;;;6.33;1.30;;;3.40;89.90;;;;;;5048418;28;20465;-79
2023/04/03 06:39:20;;;;;;;4.33;1.27;;;3.40;89.80;;;;;;5051122;28;20028;-79
2023/04/03 06:41:46;;;;;;;7.68;1.80;;;3.40;89.70;;;;;;5067478;28;20515;-81
2023/04/03 06:44:13;;;;;;;8.90;1.20;;;3.50;90.00;;;;;;5071404;28;20484;-80
2023/04/03 06:46:39;;;;;;;5.43;1.23;;;3.50;90.00;;;;;;5037110;28;20429;-80
2023/04/03 06:49:07;;;;;;;4.43;1.30;;;3.50;89.80;;;;;;5050554;28;20423;-80
2023/04/03 06:51:33;;;;;;;4.90;1.00;;;3.60;89.70;;;;;;5032544;28;20041;-80
2023/04/03 06:53:59;;;;;;;4.77;1.07;;;3.50;89.80;;;;;;5029880;28;20076;-80
2023/04/03 06:56:26;;;;;;;7.80;1.20;;;3.60;89.90;;;;;;5050054;28;20030;-80
2023/04/03 06:58:57;;;;;;;9.00;1.40;;;3.60;89.90;;;;;;5015479;28;20038;-80
2023/04/03 07:01:25;;;;;;;5.13;1.07;;;3.60;90.00;;;;;;5054914;28;20060;-80
2023/04/03 07:03:52;;;;;;;5.80;1.30;;;3.70;89.80;;;;;;5062530;28;20064;-80
2023/04/03 07:06:19;;;;;;;5.53;1.33;;;3.70;90.00;;;;;;5029634;28;20029;-80
2023/04/03 07:08:46;;;;;;;7.13;1.30;;;3.80;89.50;;;;;;5038382;28;20037;-80
2023/04/03 07:11:12;;;;;;;7.23;1.40;;;3.80;89.30;;;;;;5036734;28;20025;-80
2023/04/03 07:13:38;;;;;;;4.40;1.20;;;3.90;89.40;;;;;;5032295;28;20072;-80
2023/04/03 07:16:05;;;;;;;5.53;1.30;;;3.90;89.10;;;;;;5049002;28;20052;-79
2023/04/03 07:18:32;;;;;;;8.03;1.43;;;3.90;88.90;;;;;;5028917;28;20029;-80
2023/04/03 07:20:58;;;;;;;7.30;1.17;;;3.90;88.70;;;;;;5079630;28;20045;-79
2023/04/03 07:23:24;;;;;;;5.83;1.20;;;4.00;88.70;;;;;;5041283;28;20025;-80
2023/04/03 07:25:51;;;;;;;11.17;1.50;;;4.00;88.80;;;;;;5047528;28;20036;-79
2023/04/03 07:28:19;;;;;;;6.93;1.27;;;4.00;88.40;;;;;;5049646;28;20027;-79
2023/04/03 07:30:53;;;;;;;4.67;1.10;;;4.00;88.10;;;;;;5064759;28;20056;-79
2023/04/03 07:33:21;;;;;;;8.23;1.57;;;4.10;88.10;;;;;;5046627;28;20029;-80
2023/04/03 07:35:47;;;;;;;3.20;1.10;;;4.10;88.00;;;;;;5039704;28;20021;-79
2023/04/03 07:38:13;;;;;;;5.63;1.30;;;4.10;87.70;;;;;;5047002;28;20493;-80
2023/04/03 07:40:39;;;;;;;3.13;0.83;;;4.10;87.60;;;;;;5054698;28;20037;-80
2023/04/03 07:43:05;;;;;;;8.13;1.60;;;4.20;87.40;;;;;;5037193;28;20053;-80
2023/04/03 07:45:34;;;;;;;6.20;1.13;;;4.20;87.00;;;;;;5031195;28;20021;-79
2023/04/03 07:48:00;;;;;;;6.03;1.20;;;4.20;86.80;;;;;;5031679;28;20434;-80
2023/04/03 07:50:26;;;;;;;7.97;1.50;;;4.30;86.70;;;;;;5056791;28;20033;-80
2023/04/03 07:52:52;;;;;;;8.50;1.40;;;4.30;86.70;;;;;;5051077;28;20025;-81
2023/04/03 07:55:18;;;;;;;6.13;1.10;;;4.30;86.40;;;;;;5051030;28;20120;-80
2023/04/03 07:57:43;;;;;;;4.10;0.90;;;4.40;85.90;;;;;;5052280;28;20147;-81
2023/04/03 08:00:10;;;;;;;2.47;0.93;;;4.40;85.70;;;;;;5036764;28;20029;-81
2023/04/03 08:02:35;;;;;;;8.00;1.23;;;4.40;85.50;;;;;;5046618;28;20081;-81
2023/04/03 08:05:01;;;;;;;5.40;1.10;;;4.40;85.10;;;;;;5045942;28;20475;-81
2023/04/03 08:07:27;;;;;;;4.07;0.87;;;4.40;85.00;;;;;;5034248;28;20025;-81
2023/04/03 08:09:52;;;;;;;4.17;1.00;;;4.60;84.20;;;;;;5035217;28;20029;-81
2023/04/03 08:12:18;;;;;;;5.97;0.90;;;4.50;83.90;;;;;;5036000;28;20033;-81
2023/04/03 08:14:44;;;;;;;6.93;1.00;;;4.60;83.90;;;;;;5071084;28;20473;-80
2023/04/03 08:17:11;;;;;;;4.93;0.73;;;4.70;84.00;;;;;;5053043;28;20386;-80
2023/04/03 08:19:40;;;;;;;4.27;0.83;;;4.70;83.70;;;;;;5036710;28;20076;-81
2023/04/03 08:22:10;;;;;;;6.07;0.80;;;4.80;83.30;;;;;;5048674;28;20049;-80
2023/04/03 08:24:35;;;;;;;2.10;0.60;;;4.80;82.90;;;;;;5045832;28;20029;-81
2023/04/03 08:27:01;;;;;;;3.27;0.80;;;4.90;82.40;;;;;;5037023;28;20079;-81
2023/04/03 08:29:27;;;;;;;6.87;1.00;;;4.90;82.50;;;;;;5054345;28;20033;-81
2023/04/03 08:31:53;;;;;;;6.07;0.80;;;4.90;82.30;;;;;;5037079;28;20033;-81
2023/04/03 08:34:19;;;;;;;5.23;1.30;;;5.00;82.10;;;;;;5051839;28;20052;-81
2023/04/03 08:36:46;;;;;;;3.27;0.80;;;5.10;80.80;;;;;;5049548;28;20029;-81
2023/04/03 08:39:12;;;;;;;4.00;0.70;;;5.20;80.60;;;;;;5065787;28;20029;-81
2023/04/03 08:41:39;;;;;;;1.73;0.80;;;5.20;80.00;;;;;;5053776;28;20044;-81
2023/04/03 08:44:33;;;;;;;4.10;0.73;;;5.30;80.20;;;;;;5048616;28;20033;-81
2023/04/03 08:47:26;;;;;;;4.27;0.70;;;5.30;79.20;;;;;;5050032;28;20033;-81
2023/04/03 08:50:01;;;;;;;2.57;0.50;;;5.40;78.60;;;;;;5052957;28;20066;-81
2023/04/03 08:52:41;;;;;;;4.17;0.73;;;5.50;76.80;;;;;;5048255;28;20101;-81
2023/04/03 08:55:19;;;;;;;3.63;0.50;;;5.60;76.30;;;;;;5053324;28;20481;-81
2023/04/03 08:57:48;;;;;;;2.57;0.70;;;5.60;76.30;;;;;;5051122;28;20037;-81
2023/04/03 09:00:14;;;;;;;2.80;0.70;;;5.70;74.50;;;;;;5046534;28;20025;-82
2023/04/03 09:02:44;;;;;;;1.60;0.43;;;5.80;74.30;;;;;;5053995;28;20479;-81
2023/04/03 09:05:16;;;;;;;4.80;1.10;;;5.90;74.40;;;;;;5053274;28;20531;-81
2023/04/03 09:08:09;;;;;;;3.87;0.60;;;5.90;71.80;;;;;;5054118;28;20444;-80
2023/04/03 09:10:38;;;;;;;2.57;0.60;;;6.00;70.70;;;;;;5045191;28;20033;-80
2023/04/03 09:13:22;;;;;;;2.53;0.50;;;6.10;70.10;;;;;;5036784;28;20492;-80
2023/04/03 09:15:48;;;;;;;1.35;0.40;;;6.20;70.10;;;;;;5035676;28;20025;-80
2023/04/03 09:18:20;;;;;;;1.37;0.40;;;6.30;70.40;;;;;;5056281;28;20105;-79
2023/04/03 09:21:12;;;;;;;1.53;0.30;;;6.30;69.20;;;;;;5072999;28;20119;-80
2023/04/03 09:23:50;;;;;;;1.37;0.40;;;6.40;69.50;;;;;;5050162;28;20028;-79
2023/04/03 09:26:28;;;;;;;0.90;0.40;;;6.50;69.20;;;;;;5045752;28;20024;-79
2023/04/03 09:28:58;;;;;;;1.30;0.30;;;6.60;67.10;;;;;;5055967;28;20052;-80
2023/04/03 09:31:27;;;;;;;1.50;0.50;;;6.70;67.40;;;;;;5066599;28;20563;-80
2023/04/03 09:41:30;;;;;;;2.23;0.33;;;7.00;57.00;;;;;;5088813;27;1324656;-81
2023/04/03 09:43:55;;;;;;;3.07;0.40;;;7.20;59.50;;;;;;5094061;28;20472;-83
2023/04/03 09:46:56;;;;;;;1.30;0.30;;;7.10;60.70;;;;;;5096445;28;20108;-81
2023/04/03 09:49:22;;;;;;;1.23;0.40;;;7.10;59.70;;;;;;5057873;28;20468;-81
2023/04/03 09:52:43;;;;;;;3.93;0.47;;;7.20;60.00;;;;;;5091627;28;20033;-81
2023/04/03 09:55:32;;;;;;;1.37;0.23;;;7.30;59.50;;;;;;5041229;28;20656;-82
2023/04/03 09:58:08;;;;;;;1.93;0.30;;;7.40;60.00;;;;;;5070882;28;20471;-82
2023/04/03 10:00:37;;;;;;;1.23;0.30;;;7.40;59.60;;;;;;5074635;28;20395;-82
2023/04/03 10:03:46;;;;;;;2.43;0.30;;;7.50;58.50;;;;;;5073058;28;20028;-80
2023/04/03 10:06:47;;;;;;;2.00;0.40;;;7.60;58.40;;;;;;5072109;28;20077;-81
2023/04/03 10:12:38;;;;;;;1.77;0.50;;;7.90;57.30;;;;;;5059571;28;20090;-81
2023/04/03 10:15:18;;;;;;;2.13;0.40;;;8.30;56.30;;;;;;5009286;28;20042;-80
2023/04/03 10:18:04;;;;;;;3.80;0.40;;;8.60;56.70;;;;;;4979835;28;20049;-80
2023/04/03 10:20:52;;;;;;;1.43;0.40;;;9.20;56.90;;;;;;4988784;28;20054;-80
2023/04/03 10:23:59;;;;;;;2.47;0.30;;;9.70;55.40;;;;;;5009744;28;20042;-80
2023/04/03 10:27:05;;;;;;;1.30;0.40;;;10.40;55.90;;;;;;4992579;28;20038;-81
2023/04/03 10:29:58;;;;;;;2.72;0.40;;;11.40;55.60;;;;;;4969993;28;20062;-81
2023/04/03 10:33:01;;;;;;;2.10;0.40;;;12.40;55.10;;;;;;4987153;28;20030;-81
2023/04/03 10:36:12;;;;;;;2.08;0.35;;;13.60;54.60;;;;;;4987927;28;20117;-80
2023/04/03 10:42:23;;;;;;;1.10;0.40;;;15.60;53.40;;;;;;5043969;28;20569;-77
2023/04/03 11:02:31;;;;;;;1.52;0.40;;;20.40;45.90;;;;;;4955560;28;20029;-82
2023/04/03 11:09:08;;;;;;;3.53;0.50;;;21.10;40.10;;;;;;4970816;28;20152;-80
2023/04/03 11:12:00;;;;;;;0.98;0.30;;;21.30;38.40;;;;;;5033362;28;20041;-80
2023/04/03 11:18:00;;;;;;;1.63;0.40;;;21.90;37.70;;;;;;5023090;28;20481;-79
2023/04/03 11:24:32;;;;;;;1.83;0.35;;;22.50;35.50;;;;;;5057400;28;20108;-83
2023/04/03 11:27:10;;;;;;;1.42;0.43;;;22.70;34.40;;;;;;5038557;28;20033;-82
2023/04/03 11:29:45;;;;;;;1.40;0.47;;;22.80;35.20;;;;;;5043756;28;20038;-82
2023/04/03 11:32:28;;;;;;;1.58;0.40;;;23.10;34.20;;;;;;5037444;28;20037;-82
2023/04/03 11:35:07;;;;;;;0.85;0.30;;;23.20;33.00;;;;;;5032324;28;20120;-82
2023/04/03 11:37:47;;;;;;;0.70;0.30;;;23.40;32.70;;;;;;5039536;28;20156;-82
2023/04/03 11:44:28;;;;;;;2.65;0.47;;;23.60;31.70;;;;;;4972135;28;20430;-80
2023/04/03 11:47:02;;;;;;;0.70;0.20;;;24.00;31.80;;;;;;5019321;28;20128;-83
2023/04/03 11:52:55;;;;;;;2.70;0.47;;;24.40;31.80;;;;;;5075432;28;20026;-83
2023/04/03 11:55:42;;;;;;;0.80;0.30;;;24.70;32.20;;;;;;5057071;28;20032;-81
2023/04/03 11:58:14;;;;;;;2.92;0.40;;;24.70;30.90;;;;;;5075181;28;20098;-83
2023/04/03 12:01:09;;;;;;;2.88;0.38;;;24.80;31.30;;;;;;5055829;28;20043;-83
2023/04/03 12:03:41;;;;;;;1.10;0.38;;;24.80;30.30;;;;;;5058137;28;20039;-82
2023/04/03 12:06:09;;;;;;;2.58;0.60;;;25.00;30.40;;;;;;5074511;28;20047;-81
2023/04/03 12:08:41;;;;;;;1.23;0.40;;;25.00;30.60;;;;;;5074861;28;20084;-79
2023/04/03 12:11:13;;;;;;;1.63;0.40;;;25.30;30.10;;;;;;5056479;28;20457;-78
2023/04/03 12:13:59;;;;;;;2.35;0.30;;;25.40;29.40;;;;;;5059627;28;20028;-80
2023/04/03 12:16:42;;;;;;;2.85;0.70;;;25.40;29.20;;;;;;5049239;28;20079;-81
2023/04/03 12:19:29;;;;;;;2.03;0.70;;;25.30;29.40;;;;;;5056966;28;20035;-82
2023/04/03 12:21:57;;;;;;;1.60;0.70;;;25.50;29.40;;;;;;5056528;28;20025;-80
2023/04/03 12:24:29;;;;;;;2.50;0.68;;;25.60;29.60;;;;;;5057133;28;20387;-80
2023/04/03 12:27:03;;;;;;;1.13;0.40;;;25.90;29.50;;;;;;5057865;28;20020;-80
2023/04/03 12:29:32;;;;;;;2.28;0.38;;;26.10;29.70;;;;;;5059841;28;20064;-80
2023/04/03 12:32:22;;;;;;;2.33;0.40;;;26.20;29.50;;;;;;5058914;28;20028;-82
2023/04/03 12:35:18;;;;;;;1.90;0.63;;;26.20;29.10;;;;;;5081151;28;20383;-82
2023/04/03 12:38:02;;;;;;;3.38;0.40;;;26.40;29.00;;;;;;5036620;28;20024;-82
2023/04/03 12:40:49;;;;;;;2.95;0.30;;;26.40;28.80;;;;;;5057706;28;20021;-83
2023/04/03 12:43:27;;;;;;;1.48;0.43;;;26.50;28.90;;;;;;5055604;28;20094;-79
2023/04/03 12:46:07;;;;;;;2.97;0.60;;;26.50;28.90;;;;;;5037578;28;20107;-82
2023/04/03 12:48:47;;;;;;;2.55;0.60;;;26.50;28.40;;;;;;5075111;28;20036;-81
2023/04/03 12:51:20;;;;;;;2.83;0.50;;;26.50;28.50;;;;;;5052100;28;20424;-82
2023/04/03 12:53:46;;;;;;;1.33;0.57;;;26.70;28.80;;;;;;5059008;28;20495;-77
2023/04/03 12:56:39;;;;;;;2.75;0.32;;;26.80;28.90;;;;;;5075402;28;20040;-82
2023/04/03 12:59:16;;;;;;;2.78;0.50;;;26.90;28.60;;;;;;5053395;28;20052;-81
2023/04/03 13:01:41;;;;;;;2.17;0.70;;;26.90;28.50;;;;;;5055899;28;20028;-81
2023/04/03 13:04:12;;;;;;;2.80;0.60;;;26.90;28.70;;;;;;5039546;28;20021;-80
2023/04/03 13:06:43;;;;;;;2.15;0.47;;;27.10;28.50;;;;;;5074056;28;20105;-81
2023/04/03 13:09:29;;;;;;;1.60;0.43;;;27.30;28.40;;;;;;5073813;28;20032;-81
2023/04/03 13:12:02;;;;;;;1.90;0.50;;;27.50;28.30;;;;;;5056345;28;20043;-81
2023/04/03 13:14:28;;;;;;;1.60;0.50;;;27.60;28.40;;;;;;5075116;28;20377;-83
2023/04/03 13:16:58;;;;;;;3.22;0.40;;;27.80;27.90;;;;;;5068406;28;20016;-78
2023/04/03 13:19:26;;;;;;;2.47;0.60;;;27.70;27.60;;;;;;5055296;28;20021;-79
2023/04/03 13:22:18;;;;;;;2.95;0.70;;;27.60;27.40;;;;;;5057025;28;20039;-82
2023/04/03 13:24:47;;;;;;;2.00;0.50;;;27.50;27.60;;;;;;5048239;28;20034;-80
2023/04/03 13:27:13;;;;;;;4.55;0.60;;;27.40;27.50;;;;;;5058992;28;20107;-80
2023/04/03 13:29:40;;;;;;;3.70;0.80;;;27.20;27.50;;;;;;5073704;28;20024;-80
2023/04/03 13:32:06;;;;;;;3.67;0.50;;;27.20;27.60;;;;;;5040422;28;20040;-80
2023/04/03 13:34:40;;;;;;;1.65;0.50;;;27.40;27.70;;;;;;5056504;28;20033;-79
2023/04/03 13:37:07;;;;;;;;;;;27.40;27.60;;;;;;5058644;28;20024;-79
2023/04/03 13:39:36;;;;;;;4.88;0.65;;;27.40;27.80;;;;;;5055243;28;20318;-80
2023/04/03 13:42:17;;;;;;;2.35;0.50;;;27.50;27.90;;;;;;5055346;28;20040;-80
2023/04/03 13:44:43;;;;;;;2.92;0.70;;;27.60;27.50;;;;;;5055216;28;20017;-79
2023/04/03 13:47:15;;;;;;;1.38;0.43;;;27.60;27.60;;;;;;5056501;28;20016;-80
2023/04/03 13:49:58;;;;;;;2.35;0.40;;;27.60;27.60;;;;;;5077312;28;20028;-80
2023/04/03 13:52:36;;;;;;;2.83;0.60;;;27.50;27.30;;;;;;5054176;28;20025;-80
2023/04/03 13:55:22;;;;;;;1.60;0.50;;;27.50;27.30;;;;;;5037035;28;20393;-80
2023/04/03 13:58:00;;;;;;;2.05;0.65;;;27.40;27.40;;;;;;5057052;28;20032;-82
2023/04/03 14:00:35;;;;;;;2.35;0.60;;;27.50;27.50;;;;;;5097109;28;20095;-79
2023/04/03 14:03:01;;;;;;;1.70;0.60;;;27.50;27.40;;;;;;5094744;28;20024;-80
2023/04/03 14:05:27;;;;;;;3.08;0.68;;;27.30;27.20;;;;;;5060075;28;20027;-80